sensor_id;sensor_type;location;lat;lon;timestamp;pressure;altitude;pressure_sealevel;temperature;humidity
49122;BME280;35529;44.342;25.944;2023-04-23T00:01:18;100775.38;;;9.26;100.00
49122;BME280;35529;44.342;25.944;2023-04-23T00:03:46;100778.56;;;9.21;100.00
49122;BME280;35529;44.342;25.944;2023-04-23T00:06:15;100780.03;;;9.23;100.00
49122;BME280;35529;44.342;25.944;2023-04-23T00:08:49;100775.91;;;9.21;100.00
49122;BME280;35529;44.342;25.944;2023-04-23T00:11:19;100776.00;;;9.13;100.00
49122;BME280;35529;44.342;25.944;2023-04-23T00:13:51;100784.47;;;9.08;100.00
49122;BME280;35529;44.342;25.944;2023-04-23T00:16:23;100785.00;;;9.03;100.00
49122;BME280;35529;44.342;25.944;2023-04-23T00:18:57;100783.16;;;9.04;100.00
49122;BME280;35529;44.342;25.944;2023-04-23T00:21:28;100782.06;;;8.98;100.00
49122;BME280;35529;44.342;25.944;2023-04-23T00:23:59;100776.47;;;8.93;100.00
49122;BME280;35529;44.342;25.944;2023-04-23T00:26:30;100778.56;;;8.83;100.00
49122;BME280;35529;44.342;25.944;2023-04-23T00:28:59;100779.09;;;8.78;100.00
49122;BME280;35529;44.342;25.944;2023-04-23T00:31:30;100769.03;;;8.74;100.00
49122;BME280;35529;44.342;25.944;2023-04-23T00:34:02;100774.03;;;8.68;100.00
49122;BME280;35529;44.342;25.944;2023-04-23T00:36:33;100784.44;;;8.70;100.00
49122;BME280;35529;44.342;25.944;2023-04-23T00:39:05;100776.97;;;8.74;100.00
49122;BME280;35529;44.342;25.944;2023-04-23T00:41:34;100780.25;;;8.76;100.00
49122;BME280;35529;44.342;25.944;2023-04-23T00:44:03;100777.59;;;8.76;100.00
49122;BME280;35529;44.342;25.944;2023-04-23T00:46:29;100780.97;;;8.69;100.00
49122;BME280;35529;44.342;25.944;2023-04-23T00:49:01;100782.16;;;8.67;100.00
49122;BME280;35529;44.342;25.944;2023-04-23T00:51:32;100780.88;;;8.63;100.00
49122;BME280;35529;44.342;25.944;2023-04-23T00:54:04;100783.03;;;8.59;100.00
49122;BME280;35529;44.342;25.944;2023-04-23T00:56:38;100796.25;;;8.59;100.00
49122;BME280;35529;44.342;25.944;2023-04-23T00:59:07;100796.56;;;8.64;100.00
49122;BME280;35529;44.342;25.944;2023-04-23T01:01:40;100790.41;;;8.72;100.00
49122;BME280;35529;44.342;25.944;2023-04-23T01:04:13;100788.44;;;8.66;100.00
49122;BME280;35529;44.342;25.944;2023-04-23T01:06:46;100791.03;;;8.51;100.00
49122;BME280;35529;44.342;25.944;2023-04-23T01:09:20;100785.44;;;8.46;100.00
49122;BME280;35529;44.342;25.944;2023-04-23T01:11:55;100788.28;;;8.36;100.00
49122;BME280;35529;44.342;25.944;2023-04-23T01:14:27;100778.19;;;8.31;100.00
49122;BME280;35529;44.342;25.944;2023-04-23T01:16:58;100783.50;;;8.31;100.00
49122;BME280;35529;44.342;25.944;2023-04-23T01:19:33;100785.13;;;8.32;100.00
49122;BME280;35529;44.342;25.944;2023-04-23T01:22:04;100788.41;;;8.34;100.00
49122;BME280;35529;44.342;25.944;2023-04-23T01:24:35;100788.78;;;8.31;100.00
49122;BME280;35529;44.342;25.944;2023-04-23T01:27:12;100780.84;;;8.31;100.00
49122;BME280;35529;44.342;25.944;2023-04-23T01:29:41;100778.72;;;8.27;100.00
49122;BME280;35529;44.342;25.944;2023-04-23T01:32:17;100778.59;;;8.20;100.00
49122;BME280;35529;44.342;25.944;2023-04-23T01:34:52;100786.34;;;8.21;100.00
49122;BME280;35529;44.342;25.944;2023-04-23T01:37:24;100785.50;;;8.29;100.00
49122;BME280;35529;44.342;25.944;2023-04-23T01:39:56;100788.78;;;8.31;100.00
49122;BME280;35529;44.342;25.944;2023-04-23T01:42:25;100793.09;;;8.32;100.00
49122;BME280;35529;44.342;25.944;2023-04-23T01:44:51;100778.38;;;8.30;100.00
49122;BME280;35529;44.342;25.944;2023-04-23T01:47:18;100772.91;;;8.31;100.00
49122;BME280;35529;44.342;25.944;2023-04-23T01:49:45;100779.66;;;8.34;100.00
49122;BME280;35529;44.342;25.944;2023-04-23T01:52:13;100775.84;;;8.36;100.00
49122;BME280;35529;44.342;25.944;2023-04-23T01:54:43;100777.16;;;8.41;100.00
49122;BME280;35529;44.342;25.944;2023-04-23T01:57:09;100774.31;;;8.42;100.00
49122;BME280;35529;44.342;25.944;2023-04-23T01:59:40;100778.31;;;8.38;100.00
49122;BME280;35529;44.342;25.944;2023-04-23T02:02:09;100771.59;;;8.27;100.00
49122;BME280;35529;44.342;25.944;2023-04-23T02:04:44;100775.50;;;8.08;100.00
49122;BME280;35529;44.342;25.944;2023-04-23T02:07:14;100764.00;;;7.93;100.00
49122;BME280;35529;44.342;25.944;2023-04-23T02:09:43;100768.81;;;7.89;100.00
49122;BME280;35529;44.342;25.944;2023-04-23T02:12:17;100760.09;;;7.80;100.00
49122;BME280;35529;44.342;25.944;2023-04-23T02:14:48;100761.91;;;7.80;100.00
49122;BME280;35529;44.342;25.944;2023-04-23T02:17:17;100767.22;;;7.80;100.00
49122;BME280;35529;44.342;25.944;2023-04-23T02:19:53;100768.03;;;7.80;100.00
49122;BME280;35529;44.342;25.944;2023-04-23T02:22:27;100764.84;;;7.85;100.00
49122;BME280;35529;44.342;25.944;2023-04-23T02:24:56;100773.75;;;7.92;100.00
49122;BME280;35529;44.342;25.944;2023-04-23T02:27:29;100771.44;;;7.97;100.00
49122;BME280;35529;44.342;25.944;2023-04-23T02:29:58;100770.59;;;7.97;100.00
49122;BME280;35529;44.342;25.944;2023-04-23T02:32:27;100769.78;;;7.96;100.00
49122;BME280;35529;44.342;25.944;2023-04-23T02:34:54;100771.25;;;7.99;100.00
49122;BME280;35529;44.342;25.944;2023-04-23T02:37:26;100763.97;;;8.01;100.00
49122;BME280;35529;44.342;25.944;2023-04-23T02:39:55;100752.88;;;8.05;100.00
49122;BME280;35529;44.342;25.944;2023-04-23T02:42:29;100753.06;;;8.04;100.00
49122;BME280;35529;44.342;25.944;2023-04-23T02:45:03;100762.97;;;8.02;100.00
49122;BME280;35529;44.342;25.944;2023-04-23T02:47:31;100759.19;;;7.96;100.00
49122;BME280;35529;44.342;25.944;2023-04-23T02:50:04;100755.94;;;7.86;100.00
49122;BME280;35529;44.342;25.944;2023-04-23T02:52:34;100756.66;;;7.63;100.00
49122;BME280;35529;44.342;25.944;2023-04-23T02:55:04;100750.91;;;7.51;100.00
49122;BME280;35529;44.342;25.944;2023-04-23T02:57:35;100754.09;;;7.47;100.00
49122;BME280;35529;44.342;25.944;2023-04-23T03:00:07;100754.06;;;7.55;100.00
49122;BME280;35529;44.342;25.944;2023-04-23T03:02:39;100761.28;;;7.69;100.00
49122;BME280;35529;44.342;25.944;2023-04-23T03:05:10;100761.25;;;7.78;100.00
49122;BME280;35529;44.342;25.944;2023-04-23T03:07:36;100769.50;;;7.83;100.00
49122;BME280;35529;44.342;25.944;2023-04-23T03:10:07;100761.03;;;7.87;100.00
49122;BME280;35529;44.342;25.944;2023-04-23T03:12:35;100770.13;;;7.93;100.00
49122;BME280;35529;44.342;25.944;2023-04-23T03:15:04;100765.31;;;7.97;100.00
49122;BME280;35529;44.342;25.944;2023-04-23T03:17:32;100775.88;;;7.97;100.00
49122;BME280;35529;44.342;25.944;2023-04-23T03:20:04;100769.41;;;7.99;100.00
49122;BME280;35529;44.342;25.944;2023-04-23T03:22:33;100768.91;;;8.04;100.00
49122;BME280;35529;44.342;25.944;2023-04-23T03:25:05;100767.44;;;8.01;100.00
49122;BME280;35529;44.342;25.944;2023-04-23T03:27:35;100773.38;;;8.03;100.00
49122;BME280;35529;44.342;25.944;2023-04-23T03:30:04;100780.50;;;8.03;100.00
49122;BME280;35529;44.342;25.944;2023-04-23T03:32:32;100782.31;;;8.02;100.00
49122;BME280;35529;44.342;25.944;2023-04-23T03:35:07;100776.00;;;8.03;100.00
49122;BME280;35529;44.342;25.944;2023-04-23T03:37:38;100781.31;;;8.03;100.00
49122;BME280;35529;44.342;25.944;2023-04-23T03:40:05;100779.31;;;8.05;100.00
49122;BME280;35529;44.342;25.944;2023-04-23T03:42:37;100787.44;;;8.04;100.00
49122;BME280;35529;44.342;25.944;2023-04-23T03:45:05;100783.81;;;8.05;100.00
49122;BME280;35529;44.342;25.944;2023-04-23T03:47:34;100778.97;;;8.09;100.00
49122;BME280;35529;44.342;25.944;2023-04-23T03:50:06;100785.75;;;8.11;100.00
49122;BME280;35529;44.342;25.944;2023-04-23T03:52:35;100792.34;;;8.15;100.00
49122;BME280;35529;44.342;25.944;2023-04-23T03:55:01;100798.16;;;8.11;100.00
49122;BME280;35529;44.342;25.944;2023-04-23T03:57:30;100791.03;;;8.11;100.00
49122;BME280;35529;44.342;25.944;2023-04-23T03:59:56;100804.38;;;8.18;100.00
49122;BME280;35529;44.342;25.944;2023-04-23T04:02:22;100800.34;;;8.30;100.00
49122;BME280;35529;44.342;25.944;2023-04-23T04:04:56;100804.28;;;8.43;100.00
49122;BME280;35529;44.342;25.944;2023-04-23T04:07:22;100803.41;;;8.50;100.00
49122;BME280;35529;44.342;25.944;2023-04-23T04:09:51;100805.00;;;8.60;100.00
49122;BME280;35529;44.342;25.944;2023-04-23T04:12:20;100805.44;;;8.71;100.00
49122;BME280;35529;44.342;25.944;2023-04-23T04:14:48;100808.38;;;8.77;100.00
49122;BME280;35529;44.342;25.944;2023-04-23T04:17:20;100808.75;;;8.74;100.00
49122;BME280;35529;44.342;25.944;2023-04-23T04:19:49;100816.31;;;8.77;100.00
49122;BME280;35529;44.342;25.944;2023-04-23T04:22:18;100806.50;;;8.85;100.00
49122;BME280;35529;44.342;25.944;2023-04-23T04:24:46;100808.72;;;8.97;100.00
49122;BME280;35529;44.342;25.944;2023-04-23T04:27:19;100808.47;;;9.06;100.00
49122;BME280;35529;44.342;25.944;2023-04-23T04:29:45;100813.19;;;9.19;100.00
49122;BME280;35529;44.342;25.944;2023-04-23T04:32:14;100809.00;;;9.25;100.00
49122;BME280;35529;44.342;25.944;2023-04-23T04:34:42;100819.22;;;9.28;100.00
49122;BME280;35529;44.342;25.944;2023-04-23T04:37:14;100818.59;;;9.26;100.00
49122;BME280;35529;44.342;25.944;2023-04-23T04:39:45;100823.78;;;9.19;100.00
49122;BME280;35529;44.342;25.944;2023-04-23T04:42:16;100809.44;;;9.14;100.00
49122;BME280;35529;44.342;25.944;2023-04-23T04:44:50;100819.28;;;9.20;100.00
49122;BME280;35529;44.342;25.944;2023-04-23T04:47:19;100808.09;;;9.33;100.00
49122;BME280;35529;44.342;25.944;2023-04-23T04:49:45;100820.75;;;9.46;100.00
49122;BME280;35529;44.342;25.944;2023-04-23T04:52:13;100818.63;;;9.56;100.00
49122;BME280;35529;44.342;25.944;2023-04-23T04:54:39;100827.78;;;9.68;100.00
49122;BME280;35529;44.342;25.944;2023-04-23T04:57:06;100829.81;;;9.81;100.00
49122;BME280;35529;44.342;25.944;2023-04-23T04:59:37;100828.63;;;9.99;100.00
49122;BME280;35529;44.342;25.944;2023-04-23T05:02:05;100833.28;;;10.12;100.00
49122;BME280;35529;44.342;25.944;2023-04-23T05:04:32;100833.81;;;10.22;100.00
49122;BME280;35529;44.342;25.944;2023-04-23T05:06:58;100832.69;;;10.31;100.00
49122;BME280;35529;44.342;25.944;2023-04-23T05:09:24;100837.56;;;10.43;100.00
49122;BME280;35529;44.342;25.944;2023-04-23T05:11:50;100843.22;;;10.54;100.00
49122;BME280;35529;44.342;25.944;2023-04-23T05:14:19;100849.88;;;10.65;100.00
49122;BME280;35529;44.342;25.944;2023-04-23T05:16:46;100843.84;;;10.78;100.00
49122;BME280;35529;44.342;25.944;2023-04-23T05:19:12;100846.66;;;10.92;100.00
49122;BME280;35529;44.342;25.944;2023-04-23T05:21:38;100846.59;;;11.06;100.00
49122;BME280;35529;44.342;25.944;2023-04-23T05:24:13;100846.53;;;11.21;100.00
49122;BME280;35529;44.342;25.944;2023-04-23T05:26:48;100850.13;;;11.35;100.00
49122;BME280;35529;44.342;25.944;2023-04-23T05:29:19;100845.69;;;11.43;100.00
49122;BME280;35529;44.342;25.944;2023-04-23T05:31:50;100860.28;;;11.53;100.00
49122;BME280;35529;44.342;25.944;2023-04-23T05:34:24;100853.22;;;11.67;100.00
49122;BME280;35529;44.342;25.944;2023-04-23T05:36:57;100856.13;;;11.72;100.00
49122;BME280;35529;44.342;25.944;2023-04-23T05:39:26;100859.44;;;11.81;100.00
49122;BME280;35529;44.342;25.944;2023-04-23T05:41:58;100853.97;;;11.89;100.00
49122;BME280;35529;44.342;25.944;2023-04-23T05:44:29;100863.66;;;11.97;100.00
49122;BME280;35529;44.342;25.944;2023-04-23T05:46:55;100855.56;;;12.19;100.00
49122;BME280;35529;44.342;25.944;2023-04-23T05:49:24;100856.06;;;12.36;100.00
49122;BME280;35529;44.342;25.944;2023-04-23T05:51:55;100864.72;;;12.45;100.00
49122;BME280;35529;44.342;25.944;2023-04-23T05:54:26;100866.56;;;12.51;100.00
49122;BME280;35529;44.342;25.944;2023-04-23T05:56:55;100857.81;;;12.64;100.00
49122;BME280;35529;44.342;25.944;2023-04-23T05:59:30;100859.50;;;12.78;100.00
49122;BME280;35529;44.342;25.944;2023-04-23T06:01:58;100848.44;;;12.95;100.00
49122;BME280;35529;44.342;25.944;2023-04-23T06:04:32;100861.34;;;13.04;100.00
49122;BME280;35529;44.342;25.944;2023-04-23T06:06:58;100855.84;;;13.19;100.00
49122;BME280;35529;44.342;25.944;2023-04-23T06:09:30;100856.66;;;13.33;100.00
49122;BME280;35529;44.342;25.944;2023-04-23T06:11:56;100856.91;;;13.38;100.00
49122;BME280;35529;44.342;25.944;2023-04-23T06:14:25;100862.84;;;13.54;100.00
49122;BME280;35529;44.342;25.944;2023-04-23T06:16:57;100855.88;;;13.66;100.00
49122;BME280;35529;44.342;25.944;2023-04-23T06:19:23;100850.09;;;13.76;100.00
49122;BME280;35529;44.342;25.944;2023-04-23T06:21:52;100855.00;;;13.86;100.00
49122;BME280;35529;44.342;25.944;2023-04-23T06:24:24;100856.63;;;13.87;100.00
49122;BME280;35529;44.342;25.944;2023-04-23T06:26:53;100862.53;;;14.02;100.00
49122;BME280;35529;44.342;25.944;2023-04-23T06:29:24;100858.22;;;14.15;100.00
49122;BME280;35529;44.342;25.944;2023-04-23T06:31:55;100858.78;;;14.23;100.00
49122;BME280;35529;44.342;25.944;2023-04-23T06:34:24;100862.66;;;14.34;100.00
49122;BME280;35529;44.342;25.944;2023-04-23T06:36:50;100855.44;;;14.41;100.00
49122;BME280;35529;44.342;25.944;2023-04-23T06:39:19;100857.03;;;14.49;100.00
49122;BME280;35529;44.342;25.944;2023-04-23T06:41:45;100859.66;;;14.56;100.00
49122;BME280;35529;44.342;25.944;2023-04-23T06:44:17;100861.09;;;14.65;100.00
49122;BME280;35529;44.342;25.944;2023-04-23T06:46:45;100860.03;;;14.73;100.00
49122;BME280;35529;44.342;25.944;2023-04-23T06:49:14;100861.19;;;14.84;100.00
49122;BME280;35529;44.342;25.944;2023-04-23T06:51:40;100863.41;;;14.94;100.00
49122;BME280;35529;44.342;25.944;2023-04-23T06:54:09;100860.25;;;15.03;100.00
49122;BME280;35529;44.342;25.944;2023-04-23T06:56:41;100867.56;;;15.15;100.00
49122;BME280;35529;44.342;25.944;2023-04-23T06:59:09;100858.41;;;15.29;100.00
49122;BME280;35529;44.342;25.944;2023-04-23T07:01:38;100854.63;;;15.37;100.00
49122;BME280;35529;44.342;25.944;2023-04-23T07:04:04;100860.31;;;15.47;100.00
49122;BME280;35529;44.342;25.944;2023-04-23T07:06:30;100854.69;;;15.55;100.00
49122;BME280;35529;44.342;25.944;2023-04-23T07:08:59;100842.50;;;15.59;100.00
49122;BME280;35529;44.342;25.944;2023-04-23T07:11:28;100848.22;;;15.63;100.00
49122;BME280;35529;44.342;25.944;2023-04-23T07:13:58;100839.69;;;15.73;100.00
49122;BME280;35529;44.342;25.944;2023-04-23T07:16:25;100844.56;;;15.83;100.00
49122;BME280;35529;44.342;25.944;2023-04-23T07:18:54;100844.25;;;15.91;100.00
49122;BME280;35529;44.342;25.944;2023-04-23T07:21:20;100840.09;;;15.95;100.00
49122;BME280;35529;44.342;25.944;2023-04-23T07:23:48;100849.47;;;16.04;100.00
49122;BME280;35529;44.342;25.944;2023-04-23T07:26:14;100846.13;;;16.09;100.00
49122;BME280;35529;44.342;25.944;2023-04-23T07:28:43;100838.00;;;16.16;100.00
49122;BME280;35529;44.342;25.944;2023-04-23T07:31:12;100835.03;;;16.24;100.00
49122;BME280;35529;44.342;25.944;2023-04-23T07:33:38;100824.44;;;16.29;100.00
49122;BME280;35529;44.342;25.944;2023-04-23T07:36:09;100828.88;;;16.35;100.00
49122;BME280;35529;44.342;25.944;2023-04-23T07:38:35;100826.72;;;16.44;100.00
49122;BME280;35529;44.342;25.944;2023-04-23T07:41:01;100828.84;;;16.54;100.00
49122;BME280;35529;44.342;25.944;2023-04-23T07:43:30;100828.91;;;16.66;100.00
49122;BME280;35529;44.342;25.944;2023-04-23T07:45:56;100830.81;;;16.77;100.00
49122;BME280;35529;44.342;25.944;2023-04-23T07:48:27;100830.91;;;16.82;100.00
49122;BME280;35529;44.342;25.944;2023-04-23T07:50:56;100828.59;;;16.86;100.00
49122;BME280;35529;44.342;25.944;2023-04-23T07:53:25;100832.50;;;16.90;100.00
49122;BME280;35529;44.342;25.944;2023-04-23T07:55:53;100812.69;;;16.91;100.00
49122;BME280;35529;44.342;25.944;2023-04-23T07:58:21;100811.16;;;16.95;100.00
49122;BME280;35529;44.342;25.944;2023-04-23T08:00:47;100819.56;;;16.99;100.00
49122;BME280;35529;44.342;25.944;2023-04-23T08:03:16;100815.94;;;17.05;100.00
49122;BME280;35529;44.342;25.944;2023-04-23T08:05:43;100815.97;;;17.17;100.00
49122;BME280;35529;44.342;25.944;2023-04-23T08:08:09;100815.19;;;17.28;100.00
49122;BME280;35529;44.342;25.944;2023-04-23T08:10:38;100817.16;;;17.33;100.00
49122;BME280;35529;44.342;25.944;2023-04-23T08:13:07;100810.03;;;17.38;100.00
49122;BME280;35529;44.342;25.944;2023-04-23T08:15:38;100804.66;;;17.50;100.00
49122;BME280;35529;44.342;25.944;2023-04-23T08:18:04;100810.03;;;17.62;100.00
49122;BME280;35529;44.342;25.944;2023-04-23T08:20:31;100804.28;;;17.70;100.00
49122;BME280;35529;44.342;25.944;2023-04-23T08:23:00;100804.50;;;17.81;100.00
49122;BME280;35529;44.342;25.944;2023-04-23T08:25:34;100804.63;;;17.86;100.00
49122;BME280;35529;44.342;25.944;2023-04-23T08:28:01;100803.34;;;17.88;100.00
49122;BME280;35529;44.342;25.944;2023-04-23T08:30:33;100806.47;;;17.97;100.00
49122;BME280;35529;44.342;25.944;2023-04-23T08:33:05;100800.72;;;18.05;100.00
49122;BME280;35529;44.342;25.944;2023-04-23T08:35:37;100798.41;;;18.09;100.00
49122;BME280;35529;44.342;25.944;2023-04-23T08:38:05;100794.16;;;18.13;100.00
49122;BME280;35529;44.342;25.944;2023-04-23T08:40:35;100805.72;;;18.14;100.00
49122;BME280;35529;44.342;25.944;2023-04-23T08:43:04;100804.78;;;18.20;100.00
49122;BME280;35529;44.342;25.944;2023-04-23T08:45:33;100794.69;;;18.27;100.00
49122;BME280;35529;44.342;25.944;2023-04-23T08:48:06;100802.31;;;18.30;100.00
49122;BME280;35529;44.342;25.944;2023-04-23T08:50:34;100796.34;;;18.28;100.00
49122;BME280;35529;44.342;25.944;2023-04-23T08:53:01;100800.03;;;18.39;100.00
49122;BME280;35529;44.342;25.944;2023-04-23T08:55:32;100805.84;;;18.48;100.00
49122;BME280;35529;44.342;25.944;2023-04-23T08:58:01;100798.94;;;18.52;100.00
49122;BME280;35529;44.342;25.944;2023-04-23T09:00:29;100792.41;;;18.48;100.00
49122;BME280;35529;44.342;25.944;2023-04-23T09:02:56;100791.44;;;18.54;100.00
49122;BME280;35529;44.342;25.944;2023-04-23T09:05:23;100794.19;;;18.59;100.00
49122;BME280;35529;44.342;25.944;2023-04-23T09:07:49;100785.97;;;18.66;100.00
49122;BME280;35529;44.342;25.944;2023-04-23T09:10:15;100795.94;;;18.65;100.00
49122;BME280;35529;44.342;25.944;2023-04-23T09:12:43;100789.25;;;18.68;100.00
49122;BME280;35529;44.342;25.944;2023-04-23T09:15:13;100798.56;;;18.77;100.00
49122;BME280;35529;44.342;25.944;2023-04-23T09:17:41;100781.03;;;18.74;100.00
49122;BME280;35529;44.342;25.944;2023-04-23T09:20:10;100792.69;;;18.80;100.00
49122;BME280;35529;44.342;25.944;2023-04-23T09:25:09;100787.34;;;18.97;100.00
49122;BME280;35529;44.342;25.944;2023-04-23T09:27:38;100777.22;;;19.04;100.00
49122;BME280;35529;44.342;25.944;2023-04-23T09:30:08;100778.94;;;19.11;100.00
49122;BME280;35529;44.342;25.944;2023-04-23T09:32:36;100779.19;;;19.09;100.00
49122;BME280;35529;44.342;25.944;2023-04-23T09:35:03;100765.81;;;18.97;100.00
49122;BME280;35529;44.342;25.944;2023-04-23T09:37:29;100772.25;;;18.96;100.00
49122;BME280;35529;44.342;25.944;2023-04-23T09:39:59;100766.19;;;19.06;100.00
49122;BME280;35529;44.342;25.944;2023-04-23T09:42:26;100764.47;;;19.17;100.00
49122;BME280;35529;44.342;25.944;2023-04-23T09:45:02;100766.28;;;19.11;100.00
49122;BME280;35529;44.342;25.944;2023-04-23T09:47:32;100763.03;;;19.09;100.00
49122;BME280;35529;44.342;25.944;2023-04-23T09:50:01;100755.78;;;19.09;100.00
49122;BME280;35529;44.342;25.944;2023-04-23T09:52:30;100760.00;;;19.22;100.00
49122;BME280;35529;44.342;25.944;2023-04-23T09:54:56;100762.69;;;19.22;100.00
49122;BME280;35529;44.342;25.944;2023-04-23T09:57:24;100749.09;;;19.12;100.00
49122;BME280;35529;44.342;25.944;2023-04-23T09:59:56;100757.31;;;19.05;100.00
49122;BME280;35529;44.342;25.944;2023-04-23T10:02:27;100756.44;;;19.00;100.00
49122;BME280;35529;44.342;25.944;2023-04-23T10:04:58;100751.53;;;18.97;100.00
49122;BME280;35529;44.342;25.944;2023-04-23T10:07:27;100755.44;;;19.06;100.00
49122;BME280;35529;44.342;25.944;2023-04-23T10:09:54;100747.97;;;19.30;100.00
49122;BME280;35529;44.342;25.944;2023-04-23T10:12:20;100734.03;;;19.33;100.00
49122;BME280;35529;44.342;25.944;2023-04-23T10:14:52;100732.63;;;19.48;100.00
49122;BME280;35529;44.342;25.944;2023-04-23T10:17:22;100742.13;;;19.77;100.00
49122;BME280;35529;44.342;25.944;2023-04-23T10:19:48;100732.72;;;20.02;100.00
49122;BME280;35529;44.342;25.944;2023-04-23T10:22:17;100736.97;;;20.20;100.00
49122;BME280;35529;44.342;25.944;2023-04-23T10:24:46;100730.25;;;20.23;100.00
49122;BME280;35529;44.342;25.944;2023-04-23T10:27:16;100726.88;;;20.38;100.00
49122;BME280;35529;44.342;25.944;2023-04-23T10:29:42;100723.34;;;20.32;100.00
49122;BME280;35529;44.342;25.944;2023-04-23T10:32:12;100718.34;;;20.19;100.00
49122;BME280;35529;44.342;25.944;2023-04-23T10:34:39;100716.25;;;19.99;100.00
49122;BME280;35529;44.342;25.944;2023-04-23T10:37:07;100719.69;;;19.94;100.00
49122;BME280;35529;44.342;25.944;2023-04-23T10:39:36;100710.56;;;19.95;100.00
49122;BME280;35529;44.342;25.944;2023-04-23T10:42:09;100713.16;;;20.12;100.00
49122;BME280;35529;44.342;25.944;2023-04-23T10:44:40;100706.75;;;20.18;100.00
49122;BME280;35529;44.342;25.944;2023-04-23T10:47:15;100698.19;;;20.26;100.00
49122;BME280;35529;44.342;25.944;2023-04-23T10:49:47;100695.06;;;20.40;100.00
49122;BME280;35529;44.342;25.944;2023-04-23T10:52:17;100691.19;;;20.58;100.00
49122;BME280;35529;44.342;25.944;2023-04-23T10:54:47;100692.31;;;20.67;100.00
49122;BME280;35529;44.342;25.944;2023-04-23T10:57:13;100684.50;;;20.66;100.00
49122;BME280;35529;44.342;25.944;2023-04-23T10:59:54;100690.75;;;20.71;100.00
49122;BME280;35529;44.342;25.944;2023-04-23T11:02:24;100689.25;;;20.86;100.00
49122;BME280;35529;44.342;25.944;2023-04-23T11:04:53;100682.28;;;21.00;100.00
49122;BME280;35529;44.342;25.944;2023-04-23T11:07:29;100676.94;;;21.05;100.00
49122;BME280;35529;44.342;25.944;2023-04-23T11:09:59;100670.22;;;21.13;100.00
49122;BME280;35529;44.342;25.944;2023-04-23T11:12:35;100662.44;;;21.22;100.00
49122;BME280;35529;44.342;25.944;2023-04-23T11:15:12;100665.16;;;21.27;100.00
49122;BME280;35529;44.342;25.944;2023-04-23T11:18:00;100660.63;;;21.38;100.00
49122;BME280;35529;44.342;25.944;2023-04-23T11:20:25;100671.72;;;21.47;100.00
49122;BME280;35529;44.342;25.944;2023-04-23T11:22:54;100669.25;;;21.40;100.00
49122;BME280;35529;44.342;25.944;2023-04-23T11:25:24;100672.50;;;21.37;100.00
49122;BME280;35529;44.342;25.944;2023-04-23T11:27:54;100670.09;;;21.51;100.00
49122;BME280;35529;44.342;25.944;2023-04-23T11:30:24;100669.34;;;21.60;100.00
49122;BME280;35529;44.342;25.944;2023-04-23T11:32:54;100660.47;;;21.70;100.00
49122;BME280;35529;44.342;25.944;2023-04-23T11:35:21;100663.19;;;21.81;100.00
49122;BME280;35529;44.342;25.944;2023-04-23T11:37:55;100660.50;;;21.86;100.00
49122;BME280;35529;44.342;25.944;2023-04-23T11:40:26;100649.41;;;21.77;100.00
49122;BME280;35529;44.342;25.944;2023-04-23T11:42:58;100653.47;;;21.80;100.00
49122;BME280;35529;44.342;25.944;2023-04-23T11:45:27;100648.06;;;21.74;100.00
49122;BME280;35529;44.342;25.944;2023-04-23T11:47:59;100642.66;;;21.74;100.00
49122;BME280;35529;44.342;25.944;2023-04-23T11:50:29;100650.50;;;21.76;100.00
49122;BME280;35529;44.342;25.944;2023-04-23T11:53:00;100644.00;;;21.72;100.00
49122;BME280;35529;44.342;25.944;2023-04-23T11:55:29;100644.78;;;21.62;100.00
49122;BME280;35529;44.342;25.944;2023-04-23T11:57:55;100642.53;;;21.43;100.00
49122;BME280;35529;44.342;25.944;2023-04-23T12:00:24;100637.09;;;21.33;100.00
49122;BME280;35529;44.342;25.944;2023-04-23T12:02:55;100631.16;;;21.36;100.00
49122;BME280;35529;44.342;25.944;2023-04-23T12:05:27;100627.44;;;21.48;100.00
49122;BME280;35529;44.342;25.944;2023-04-23T12:08:07;100632.06;;;21.57;100.00
49122;BME280;35529;44.342;25.944;2023-04-23T12:10:45;100632.09;;;21.63;100.00
49122;BME280;35529;44.342;25.944;2023-04-23T12:15:47;100627.75;;;21.62;100.00
49122;BME280;35529;44.342;25.944;2023-04-23T12:18:17;100620.19;;;21.64;100.00
49122;BME280;35529;44.342;25.944;2023-04-23T12:20:43;100618.88;;;21.66;100.00
49122;BME280;35529;44.342;25.944;2023-04-23T12:23:13;100617.25;;;21.70;100.00
49122;BME280;35529;44.342;25.944;2023-04-23T12:25:46;100616.16;;;21.76;99.53
49122;BME280;35529;44.342;25.944;2023-04-23T12:28:15;100611.03;;;21.85;100.00
49122;BME280;35529;44.342;25.944;2023-04-23T12:30:46;100614.56;;;21.96;100.00
49122;BME280;35529;44.342;25.944;2023-04-23T12:33:12;100613.22;;;22.04;100.00
49122;BME280;35529;44.342;25.944;2023-04-23T12:35:50;100617.53;;;22.15;100.00
49122;BME280;35529;44.342;25.944;2023-04-23T12:38:28;100612.97;;;22.10;100.00
49122;BME280;35529;44.342;25.944;2023-04-23T12:40:58;100607.53;;;22.10;100.00
49122;BME280;35529;44.342;25.944;2023-04-23T12:43:28;100597.81;;;22.15;100.00
49122;BME280;35529;44.342;25.944;2023-04-23T12:45:59;100597.81;;;22.20;100.00
49122;BME280;35529;44.342;25.944;2023-04-23T12:48:29;100594.00;;;22.26;100.00
49122;BME280;35529;44.342;25.944;2023-04-23T12:50:59;100591.56;;;22.30;100.00